createdAt,value
2023-05-18T00:01:54.131Z,70.40
2023-05-18T00:04:24.146Z,70.10
2023-05-18T00:06:56.998Z,70.30
2023-05-18T00:09:25.703Z,70.30
2023-05-18T00:11:53.845Z,70.10
2023-05-18T00:14:23.195Z,70.10
2023-05-18T00:16:53.892Z,70.00
2023-05-18T00:19:24.366Z,70.00
2023-05-18T00:21:55.992Z,70.00
2023-05-18T00:24:24.076Z,70.10
2023-05-18T00:26:52.174Z,70.00
2023-05-18T00:29:20.410Z,69.80
2023-05-18T00:31:48.601Z,69.60
2023-05-18T00:34:16.877Z,69.30
2023-05-18T00:36:44.979Z,69.60
2023-05-18T00:39:14.444Z,69.70
2023-05-18T00:41:42.541Z,69.70
2023-05-18T00:44:10.627Z,69.40
2023-05-18T00:46:38.830Z,69.50
2023-05-18T00:49:07.029Z,69.70
2023-05-18T00:51:35.122Z,69.30
2023-05-18T00:54:06.284Z,69.50
2023-05-18T00:56:35.786Z,69.20
2023-05-18T00:59:04.868Z,69.40
2023-05-18T01:01:34.946Z,69.20
2023-05-18T01:04:14.336Z,69.50
2023-05-18T01:06:47.330Z,69.10
2023-05-18T01:09:16.328Z,69.40
2023-05-18T01:11:52.856Z,69.20
2023-05-18T01:14:29.876Z,68.90
2023-05-18T01:17:04.227Z,69.30
2023-05-18T01:19:58.679Z,69.10
2023-05-18T01:22:44.480Z,69.00
2023-05-18T01:25:19.906Z,69.10
2023-05-18T01:27:49.571Z,68.80
2023-05-18T01:30:18.197Z,68.90
2023-05-18T01:32:47.507Z,69.10
2023-05-18T01:35:15.689Z,68.70
2023-05-18T01:37:43.784Z,68.70
2023-05-18T01:40:12.087Z,68.70
2023-05-18T01:42:43.329Z,69.20
2023-05-18T01:45:16.739Z,68.70
2023-05-18T01:47:47.171Z,68.70
2023-05-18T01:50:19.701Z,68.70
2023-05-18T01:52:49.386Z,68.60
2023-05-18T01:55:17.490Z,68.90
2023-05-18T01:57:46.693Z,68.90
2023-05-18T02:00:17.669Z,68.50
2023-05-18T02:02:46.079Z,68.50
2023-05-18T02:05:14.246Z,68.40
2023-05-18T02:07:44.102Z,68.60
2023-05-18T02:10:13.440Z,68.20
2023-05-18T02:12:41.663Z,68.50
2023-05-18T02:15:10.706Z,68.50
2023-05-18T02:17:40.409Z,68.40
2023-05-18T02:20:10.156Z,68.30
2023-05-18T02:22:38.337Z,68.50
2023-05-18T02:25:07.282Z,68.30
2023-05-18T02:27:36.752Z,68.20
2023-05-18T02:30:05.810Z,68.60
2023-05-18T02:32:38.587Z,68.20
2023-05-18T02:35:09.023Z,68.50
2023-05-18T02:37:40.279Z,68.00
2023-05-18T02:40:11.116Z,68.10
2023-05-18T02:42:39.214Z,67.70
2023-05-18T02:45:08.631Z,68.10
2023-05-18T02:47:36.758Z,68.20
2023-05-18T02:50:05.250Z,67.90
2023-05-18T02:52:35.013Z,68.10
2023-05-18T02:55:03.198Z,68.40
2023-05-18T02:57:32.801Z,68.10
2023-05-18T03:00:00.992Z,68.40
2023-05-18T03:02:30.243Z,68.00
2023-05-18T03:04:58.471Z,68.10
2023-05-18T03:07:27.728Z,67.90
2023-05-18T03:09:57.265Z,67.90
2023-05-18T03:12:25.490Z,68.20
2023-05-18T03:14:53.716Z,67.70
2023-05-18T03:17:21.832Z,67.70
2023-05-18T03:19:50.118Z,67.60
2023-05-18T03:22:18.210Z,68.00
2023-05-18T03:24:46.323Z,67.60
2023-05-18T03:27:17.433Z,67.80
2023-05-18T03:29:45.650Z,67.70
2023-05-18T03:32:13.783Z,68.10
2023-05-18T03:34:41.892Z,67.60
2023-05-18T03:37:10.005Z,67.80
2023-05-18T03:39:38.117Z,67.60
2023-05-18T03:42:06.355Z,67.80
2023-05-18T03:44:35.998Z,67.60
2023-05-18T03:47:04.175Z,67.60
2023-05-18T03:49:34.502Z,67.50
2023-05-18T03:52:03.040Z,67.60
2023-05-18T03:54:31.114Z,67.40
2023-05-18T03:56:59.267Z,67.40
2023-05-18T03:59:27.354Z,67.30
2023-05-18T04:01:56.867Z,67.70
2023-05-18T04:04:27.521Z,67.80
2023-05-18T04:07:06.103Z,67.30
2023-05-18T04:09:34.953Z,67.30
2023-05-18T04:12:03.225Z,67.20
2023-05-18T04:14:33.121Z,67.50
2023-05-18T04:17:05.215Z,67.50
2023-05-18T04:19:34.107Z,67.70
2023-05-18T04:22:04.878Z,67.70
2023-05-18T04:24:34.629Z,67.30
2023-05-18T04:27:02.962Z,67.30
2023-05-18T04:29:31.172Z,67.10
2023-05-18T04:32:01.086Z,67.10
2023-05-18T04:34:31.397Z,67.60
2023-05-18T04:36:59.627Z,67.50
2023-05-18T04:39:27.814Z,67.20
2023-05-18T04:41:58.307Z,67.20
2023-05-18T04:44:27.528Z,67.20
2023-05-18T04:46:55.731Z,67.40
2023-05-18T04:49:23.885Z,67.30
2023-05-18T04:51:55.973Z,67.20
2023-05-18T04:54:24.531Z,67.40
2023-05-18T04:56:52.716Z,67.40
2023-05-18T04:59:20.920Z,67.60
2023-05-18T05:01:49.123Z,67.30
2023-05-18T05:04:17.276Z,67.60
2023-05-18T05:06:45.415Z,67.50
2023-05-18T05:09:15.098Z,67.20
2023-05-18T05:11:43.264Z,67.10
2023-05-18T05:14:11.558Z,67.40
2023-05-18T05:16:47.286Z,67.40
2023-05-18T05:19:15.422Z,67.60
2023-05-18T05:21:43.561Z,67.30
2023-05-18T05:24:11.665Z,67.30
2023-05-18T05:26:41.127Z,67.60
2023-05-18T05:29:09.236Z,67.30
2023-05-18T05:31:37.383Z,67.50
2023-05-18T05:34:05.488Z,67.60
2023-05-18T05:36:33.871Z,67.70
2023-05-18T05:39:01.986Z,67.50
2023-05-18T05:41:31.772Z,67.40
2023-05-18T05:44:02.122Z,67.20
2023-05-18T05:46:30.299Z,67.20
2023-05-18T05:48:58.405Z,67.30
2023-05-18T05:51:26.501Z,67.30
2023-05-18T05:53:54.629Z,67.50
2023-05-18T05:56:22.884Z,67.50
2023-05-18T05:58:51.234Z,67.70
2023-05-18T06:01:20.696Z,67.60
2023-05-18T06:03:48.977Z,67.60
2023-05-18T06:06:17.176Z,67.60
2023-05-18T06:08:45.311Z,67.60
2023-05-18T06:11:13.691Z,67.80
2023-05-18T06:13:41.844Z,67.80
2023-05-18T06:16:09.950Z,67.90
2023-05-18T06:18:39.570Z,67.60
2023-05-18T06:21:07.769Z,67.70
2023-05-18T06:23:35.854Z,67.80
2023-05-18T06:26:04.092Z,67.90
2023-05-18T06:28:32.234Z,68.10
2023-05-18T06:31:00.315Z,67.90
2023-05-18T06:33:28.537Z,68.10
2023-05-18T06:35:58.139Z,68.20
2023-05-18T06:38:29.357Z,68.00
2023-05-18T06:40:57.466Z,67.80
2023-05-18T06:43:26.948Z,68.20
2023-05-18T06:45:55.493Z,68.00
2023-05-18T06:48:25.058Z,68.10
2023-05-18T06:50:53.469Z,68.30
2023-05-18T06:53:23.286Z,68.30
2023-05-18T06:55:51.520Z,68.30
2023-05-18T06:58:19.621Z,68.30
2023-05-18T07:00:48.575Z,68.10
2023-05-18T07:03:16.901Z,68.30
2023-05-18T07:05:45.125Z,68.40
2023-05-18T07:08:13.282Z,68.40
2023-05-18T07:10:42.763Z,68.40
2023-05-18T07:13:10.827Z,68.70
2023-05-18T07:15:39.152Z,68.60
2023-05-18T07:18:07.447Z,68.60
2023-05-18T07:20:35.616Z,68.70
2023-05-18T07:23:03.776Z,68.60
2023-05-18T07:25:32.154Z,68.60
2023-05-18T07:28:01.746Z,68.70
2023-05-18T07:30:29.811Z,68.70
2023-05-18T07:32:57.978Z,68.80
2023-05-18T07:35:26.599Z,68.80
2023-05-18T07:37:55.042Z,68.60
2023-05-18T07:40:23.131Z,68.60
2023-05-18T07:42:51.238Z,68.70
2023-05-18T07:45:21.005Z,68.90
2023-05-18T07:47:49.135Z,68.80
2023-05-18T07:50:17.322Z,68.90
2023-05-18T07:52:45.634Z,68.80
2023-05-18T07:55:13.730Z,68.90
2023-05-18T07:57:41.981Z,69.00
2023-05-18T08:00:11.344Z,69.00
2023-05-18T08:02:40.973Z,68.80
2023-05-18T08:05:10.923Z,69.00
2023-05-18T08:07:42.599Z,69.10
2023-05-18T08:10:11.825Z,69.10
2023-05-18T08:12:39.928Z,69.20
2023-05-18T08:15:09.705Z,69.20
2023-05-18T08:17:37.851Z,69.10
2023-05-18T08:20:10.486Z,69.20
2023-05-18T08:22:38.624Z,69.10
2023-05-18T08:25:07.184Z,69.10
2023-05-18T08:27:35.301Z,69.30
2023-05-18T08:30:03.424Z,69.10
2023-05-18T08:32:32.030Z,69.30
2023-05-18T08:35:00.492Z,69.40
2023-05-18T08:37:31.207Z,69.40
2023-05-18T08:40:00.109Z,69.60
2023-05-18T08:42:38.020Z,69.50
2023-05-18T08:45:22.301Z,69.30
2023-05-18T08:47:51.028Z,69.40
2023-05-18T08:50:21.109Z,69.40
2023-05-18T08:52:56.708Z,69.50
2023-05-18T08:55:24.863Z,69.50
2023-05-18T08:57:56.288Z,69.60
2023-05-18T09:00:24.982Z,69.60
2023-05-18T09:02:53.286Z,69.50
2023-05-18T09:05:21.504Z,69.10
2023-05-18T09:07:51.368Z,69.50
2023-05-18T09:10:19.599Z,69.60
2023-05-18T09:12:48.733Z,69.50
2023-05-18T09:15:17.878Z,69.60
2023-05-18T09:17:46.085Z,69.70
2023-05-18T09:20:14.476Z,69.80
2023-05-18T09:22:42.562Z,69.80
2023-05-18T09:25:12.072Z,69.70
2023-05-18T09:27:40.268Z,69.70
2023-05-18T09:30:12.164Z,69.60
2023-05-18T09:32:40.352Z,69.80
2023-05-18T09:35:09.331Z,69.60
2023-05-18T09:37:37.479Z,69.90
2023-05-18T09:40:06.776Z,70.00
2023-05-18T09:42:39.393Z,70.00
2023-05-18T09:45:17.432Z,69.90
2023-05-18T09:47:45.606Z,70.00
2023-05-18T09:50:13.765Z,70.00
2023-05-18T09:52:43.383Z,70.10
2023-05-18T09:55:11.871Z,70.10
2023-05-18T09:57:42.207Z,70.10
2023-05-18T10:00:12.754Z,70.10
2023-05-18T10:02:41.550Z,70.00
2023-05-18T10:05:20.321Z,70.30
2023-05-18T10:07:49.748Z,70.20
2023-05-18T10:10:18.947Z,70.30
2023-05-18T10:12:48.436Z,70.30
2023-05-18T10:15:16.708Z,70.30
2023-05-18T10:17:45.782Z,70.10
2023-05-18T10:20:15.708Z,70.20
2023-05-18T10:22:43.809Z,70.30
2023-05-18T10:25:12.137Z,70.40
2023-05-18T10:27:40.292Z,70.40
2023-05-18T10:30:10.950Z,70.50
2023-05-18T10:32:39.072Z,70.60
2023-05-18T10:35:08.067Z,70.70
2023-05-18T10:37:36.949Z,70.70
2023-05-18T10:40:06.334Z,70.80
2023-05-18T10:42:34.471Z,70.70
2023-05-18T10:45:02.687Z,70.60
2023-05-18T10:47:32.831Z,70.70
2023-05-18T10:50:01.584Z,70.70
2023-05-18T10:52:31.945Z,70.70
2023-05-18T10:55:00.632Z,70.60
2023-05-18T10:57:31.061Z,70.90
2023-05-18T10:59:59.168Z,70.90
2023-05-18T11:02:27.314Z,70.90
2023-05-18T11:04:57.406Z,70.90
2023-05-18T11:07:28.508Z,71.00
2023-05-18T11:09:56.906Z,71.00
2023-05-18T11:12:26.151Z,70.90
2023-05-18T11:14:55.270Z,71.00
2023-05-18T11:17:23.834Z,71.20
2023-05-18T11:20:16.240Z,71.10
2023-05-18T11:22:48.453Z,70.90
2023-05-18T11:25:41.951Z,70.40
2023-05-18T11:28:11.511Z,70.90
2023-05-18T11:30:50.169Z,70.90
2023-05-18T11:33:23.070Z,71.00
2023-05-18T11:36:07.424Z,71.10
2023-05-18T11:38:53.771Z,71.10
2023-05-18T11:41:29.253Z,70.70
2023-05-18T11:44:17.080Z,71.10
2023-05-18T11:46:56.587Z,71.20
2023-05-18T11:49:25.543Z,71.30
2023-05-18T11:52:05.258Z,71.30
2023-05-18T11:54:39.937Z,70.60
2023-05-18T11:57:08.412Z,70.50
2023-05-18T11:59:38.701Z,71.00
2023-05-18T12:02:07.112Z,71.20
2023-05-18T12:04:35.290Z,70.90
2023-05-18T12:07:08.078Z,71.20
2023-05-18T12:09:36.316Z,71.00
2023-05-18T12:12:04.657Z,71.00
2023-05-18T12:14:32.825Z,71.00
2023-05-18T12:17:01.012Z,70.90
2023-05-18T12:19:29.262Z,70.90
2023-05-18T12:21:58.975Z,70.90
2023-05-18T12:24:28.604Z,71.20
2023-05-18T12:26:57.759Z,71.00
2023-05-18T12:29:25.829Z,71.10
2023-05-18T12:31:53.948Z,70.50
2023-05-18T12:34:22.077Z,71.00
2023-05-18T12:36:54.569Z,71.00
2023-05-18T12:39:22.684Z,71.10
2023-05-18T12:41:52.255Z,71.20
2023-05-18T12:44:20.346Z,71.00
2023-05-18T12:46:49.467Z,70.90
2023-05-18T12:49:19.544Z,71.20
2023-05-18T12:51:47.702Z,71.10
2023-05-18T12:54:15.798Z,71.10
2023-05-18T12:57:02.049Z,70.50
2023-05-18T12:59:30.633Z,71.30
2023-05-18T13:01:59.234Z,71.20
2023-05-18T13:04:34.630Z,70.70
2023-05-18T13:07:02.751Z,71.10
2023-05-18T13:09:30.913Z,71.00
2023-05-18T13:12:07.664Z,70.70
2023-05-18T13:14:39.249Z,70.60
2023-05-18T13:17:07.465Z,70.90
2023-05-18T13:19:36.221Z,71.10
2023-05-18T13:22:04.433Z,71.20
2023-05-18T13:24:32.539Z,71.50
2023-05-18T13:27:02.463Z,71.50
2023-05-18T13:29:30.564Z,70.80
2023-05-18T13:31:58.705Z,70.60
2023-05-18T13:34:26.849Z,70.50
2023-05-18T13:37:00.931Z,70.70
2023-05-18T13:39:29.173Z,70.80
2023-05-18T13:41:57.255Z,70.60
2023-05-18T13:44:26.742Z,70.80
2023-05-18T13:46:54.842Z,70.40
2023-05-18T13:49:23.057Z,70.40
2023-05-18T13:51:51.139Z,70.60
2023-05-18T13:54:19.255Z,70.80
2023-05-18T13:56:47.540Z,70.90
2023-05-18T13:59:19.488Z,70.70
2023-05-18T14:01:49.704Z,71.30
2023-05-18T14:04:17.911Z,71.20
2023-05-18T14:06:46.318Z,70.70
2023-05-18T14:09:14.395Z,71.10
2023-05-18T14:11:42.510Z,70.50
2023-05-18T14:14:11.815Z,71.00
2023-05-18T14:16:39.932Z,70.80
2023-05-18T14:19:09.487Z,71.10
2023-05-18T14:21:37.628Z,70.80
2023-05-18T14:24:07.661Z,71.30
2023-05-18T14:26:36.588Z,70.80
2023-05-18T14:29:04.767Z,70.90
2023-05-18T14:31:32.967Z,70.80
2023-05-18T14:34:01.163Z,71.00
2023-05-18T14:36:31.058Z,70.40
2023-05-18T14:38:59.142Z,71.30
2023-05-18T14:41:27.300Z,70.80
2023-05-18T14:43:55.380Z,70.90
2023-05-18T14:46:23.485Z,70.90
2023-05-18T14:48:51.731Z,70.70
2023-05-18T14:51:19.877Z,70.50
2023-05-18T14:53:49.542Z,70.30
2023-05-18T14:56:17.634Z,70.60
2023-05-18T14:58:45.771Z,70.70
2023-05-18T15:01:13.849Z,70.50
2023-05-18T15:03:42.005Z,70.30
2023-05-18T15:06:10.515Z,70.20
2023-05-18T15:08:38.582Z,70.20
2023-05-18T15:11:08.118Z,70.20
2023-05-18T15:13:36.211Z,70.40
2023-05-18T15:16:04.386Z,70.20
2023-05-18T15:18:32.480Z,70.40
2023-05-18T15:21:00.559Z,70.30
2023-05-18T15:23:35.821Z,70.20
2023-05-18T15:26:04.944Z,70.20
2023-05-18T15:28:35.740Z,70.30
2023-05-18T15:31:03.873Z,70.00
2023-05-18T15:33:31.980Z,70.20
2023-05-18T15:36:06.534Z,70.00
2023-05-18T15:38:34.628Z,70.10
2023-05-18T15:41:02.747Z,70.10
2023-05-18T15:43:31.147Z,70.00
2023-05-18T15:46:00.762Z,70.00
2023-05-18T15:48:29.692Z,70.10
2023-05-18T15:50:57.812Z,70.10
2023-05-18T15:53:25.934Z,70.60
2023-05-18T15:55:58.647Z,70.00
2023-05-18T15:58:27.602Z,70.00
2023-05-18T16:00:55.800Z,70.20
2023-05-18T16:03:25.469Z,70.00
2023-05-18T16:05:53.588Z,70.10
2023-05-18T16:08:21.676Z,69.90
2023-05-18T16:10:49.777Z,70.10
2023-05-18T16:13:26.911Z,70.10
2023-05-18T16:15:54.996Z,70.00
2023-05-18T16:18:24.513Z,70.20
2023-05-18T16:20:52.675Z,70.30
2023-05-18T16:23:20.767Z,70.30
2023-05-18T16:25:48.866Z,70.30
2023-05-18T16:28:16.973Z,70.20
2023-05-18T16:30:47.863Z,70.60
2023-05-18T16:33:16.924Z,70.50
2023-05-18T16:35:46.522Z,70.90
2023-05-18T16:38:17.914Z,70.90
2023-05-18T16:40:46.560Z,70.60
2023-05-18T16:43:14.663Z,70.70
2023-05-18T16:45:42.745Z,70.70
2023-05-18T16:48:10.870Z,70.90
2023-05-18T16:50:39.140Z,70.60
2023-05-18T16:53:08.641Z,70.50
2023-05-18T16:55:41.959Z,70.40
2023-05-18T16:58:10.059Z,70.30
2023-05-18T17:00:38.174Z,70.40
2023-05-18T17:03:06.622Z,70.40
2023-05-18T17:05:35.652Z,70.40
2023-05-18T17:08:03.727Z,70.60
2023-05-18T17:10:35.537Z,70.70
2023-05-18T17:13:03.730Z,71.30
2023-05-18T17:15:32.030Z,71.40
2023-05-18T17:18:00.263Z,70.80
2023-05-18T17:20:28.520Z,70.90
2023-05-18T17:22:56.874Z,70.70
2023-05-18T17:25:25.042Z,71.00
2023-05-18T17:27:54.518Z,71.20
2023-05-18T17:30:22.726Z,71.40
2023-05-18T17:32:51.004Z,71.40
2023-05-18T17:35:19.292Z,71.60
2023-05-18T17:37:48.898Z,71.90
2023-05-18T17:40:17.121Z,71.90
2023-05-18T17:42:45.208Z,71.90
2023-05-18T17:45:14.690Z,71.50
2023-05-18T17:47:42.824Z,71.80
2023-05-18T17:50:11.576Z,72.00
2023-05-18T17:52:39.670Z,72.20
2023-05-18T17:55:09.069Z,72.20
2023-05-18T17:57:45.531Z,72.20
2023-05-18T18:00:16.366Z,72.20
2023-05-18T18:02:44.512Z,72.30
2023-05-18T18:05:13.082Z,72.30
2023-05-18T18:07:41.919Z,72.40
2023-05-18T18:10:11.237Z,72.20
2023-05-18T18:12:39.338Z,72.30
2023-05-18T18:15:08.605Z,72.40
2023-05-18T18:17:38.155Z,72.40
2023-05-18T18:20:07.744Z,72.50
2023-05-18T18:22:41.982Z,72.50
2023-05-18T18:25:10.258Z,72.60
2023-05-18T18:27:38.393Z,72.50
2023-05-18T18:30:07.548Z,72.60
2023-05-18T18:32:37.032Z,72.60
2023-05-18T18:35:05.623Z,72.60
2023-05-18T18:37:33.745Z,72.50
2023-05-18T18:40:01.835Z,72.60
2023-05-18T18:42:29.959Z,72.60
2023-05-18T18:44:58.050Z,72.60
2023-05-18T18:47:26.256Z,72.60
2023-05-18T18:49:55.854Z,72.60
2023-05-18T18:52:23.951Z,72.60
2023-05-18T18:54:52.083Z,72.60
2023-05-18T18:57:20.226Z,72.60
2023-05-18T18:59:54.030Z,72.60
2023-05-18T19:02:23.706Z,72.60
2023-05-18T19:04:52.762Z,72.60
2023-05-18T19:07:22.304Z,72.60
2023-05-18T19:09:50.571Z,72.70
2023-05-18T19:12:18.675Z,72.60
2023-05-18T19:14:46.762Z,72.60
2023-05-18T19:17:14.883Z,72.60
2023-05-18T19:19:42.987Z,72.60
2023-05-18T19:22:11.081Z,72.50
2023-05-18T19:24:40.542Z,72.60
2023-05-18T19:27:08.651Z,72.60
2023-05-18T19:29:37.427Z,72.50
2023-05-18T19:32:06.519Z,72.60
2023-05-18T19:34:34.692Z,72.60
2023-05-18T19:37:02.839Z,72.60
2023-05-18T19:39:30.982Z,72.60
2023-05-18T19:42:00.992Z,72.60
2023-05-18T19:44:29.131Z,72.50
2023-05-18T19:46:57.234Z,72.60
2023-05-18T19:49:25.349Z,72.60
2023-05-18T19:51:53.472Z,72.50
2023-05-18T19:54:21.954Z,72.60
2023-05-18T19:56:50.043Z,72.50
2023-05-18T19:59:19.540Z,72.50
2023-05-18T20:01:47.701Z,72.50
2023-05-18T20:04:15.993Z,72.50
2023-05-18T20:06:44.258Z,72.40
2023-05-18T20:09:12.384Z,72.50
2023-05-18T20:11:40.449Z,72.50
2023-05-18T20:14:08.602Z,72.50
2023-05-18T20:16:39.804Z,72.40
2023-05-18T20:19:08.538Z,72.40
2023-05-18T20:21:36.942Z,72.40
2023-05-18T20:24:05.256Z,72.50
2023-05-18T20:26:33.362Z,72.50
2023-05-18T20:29:01.454Z,72.40
2023-05-18T20:31:29.573Z,72.40
2023-05-18T20:33:59.066Z,72.50
2023-05-18T20:36:30.890Z,72.30
2023-05-18T20:38:59.368Z,72.40
2023-05-18T20:41:28.341Z,72.40
2023-05-18T20:43:56.448Z,72.40
2023-05-18T20:46:25.088Z,72.30
2023-05-18T20:48:55.287Z,72.20
2023-05-18T20:51:24.953Z,72.50
2023-05-18T20:53:53.028Z,72.40
2023-05-18T20:56:21.944Z,72.40
2023-05-18T20:58:50.465Z,72.50
2023-05-18T21:01:18.914Z,72.30
2023-05-18T21:03:48.051Z,72.40
2023-05-18T21:06:16.197Z,72.40
2023-05-18T21:08:45.845Z,72.50
2023-05-18T21:11:14.084Z,72.40
2023-05-18T21:13:42.195Z,72.20
2023-05-18T21:16:10.770Z,72.20
2023-05-18T21:18:38.978Z,72.20
2023-05-18T21:21:07.055Z,72.30
2023-05-18T21:23:35.418Z,72.20
2023-05-18T21:26:04.894Z,72.10
2023-05-18T21:28:32.986Z,72.10
2023-05-18T21:31:01.286Z,72.20
2023-05-18T21:33:29.684Z,72.30
2023-05-18T21:35:58.706Z,72.00
2023-05-18T21:38:26.842Z,72.30
2023-05-18T21:40:56.429Z,72.20
2023-05-18T21:43:25.996Z,72.10
2023-05-18T21:45:54.159Z,72.20
2023-05-18T21:48:22.319Z,72.00
2023-05-18T21:50:50.460Z,72.20
2023-05-18T21:53:18.840Z,72.30
2023-05-18T21:55:46.922Z,72.30
2023-05-18T21:58:15.006Z,72.10
2023-05-18T22:00:44.558Z,71.90
2023-05-18T22:03:12.726Z,72.20
2023-05-18T22:05:44.687Z,72.20
2023-05-18T22:08:12.862Z,72.00
2023-05-18T22:10:41.655Z,72.20
2023-05-18T22:13:09.841Z,71.90
2023-05-18T22:15:37.949Z,72.10
2023-05-18T22:18:07.557Z,72.40
2023-05-18T22:20:36.572Z,72.20
2023-05-18T22:23:04.684Z,72.00
2023-05-18T22:25:32.897Z,72.30
2023-05-18T22:28:01.075Z,72.20
2023-05-18T22:30:29.625Z,72.20
2023-05-18T22:32:58.658Z,72.10
2023-05-18T22:35:28.280Z,71.90
2023-05-18T22:37:56.416Z,72.10
2023-05-18T22:40:24.602Z,72.10
2023-05-18T22:42:55.017Z,72.00
2023-05-18T22:45:23.152Z,71.70
2023-05-18T22:47:52.796Z,72.00
2023-05-18T22:50:21.244Z,71.60
2023-05-18T22:52:50.858Z,71.80
2023-05-18T22:55:19.127Z,71.70
2023-05-18T22:57:47.257Z,71.40
2023-05-18T23:00:16.583Z,71.70
2023-05-18T23:02:44.753Z,71.80
2023-05-18T23:05:13.297Z,71.70
2023-05-18T23:07:41.877Z,71.50
2023-05-18T23:10:12.509Z,71.50
2023-05-18T23:12:41.641Z,71.40
2023-05-18T23:15:10.862Z,71.60
2023-05-18T23:17:39.607Z,71.50
2023-05-18T23:20:10.473Z,71.40
2023-05-18T23:22:38.560Z,71.40
2023-05-18T23:25:08.846Z,71.30
2023-05-18T23:27:38.504Z,71.20
2023-05-18T23:30:07.835Z,71.20
2023-05-18T23:32:36.707Z,71.20
2023-05-18T23:35:05.705Z,71.30
2023-05-18T23:37:33.968Z,71.30
2023-05-18T23:40:02.552Z,71.30
2023-05-18T23:42:31.248Z,71.20
2023-05-18T23:45:02.186Z,71.00
2023-05-18T23:47:30.682Z,71.00
2023-05-18T23:49:59.370Z,70.90
2023-05-18T23:52:28.030Z,70.80
2023-05-18T23:54:58.663Z,70.80
2023-05-18T23:57:27.285Z,71.00
2023-05-18T23:59:55.510Z,71.00
